Sitc Xiamen — 3ELU — position and weather

sailwx.info

Track history (hours):
 
Tides and Currents Weather Stations Pressure Air Temp Water Temp Dewpoint Dewpoint Depression Visibility Wind Speed Wind Dir Waves Ship Positions

Sitc Xiamen

Last reported at 2016-May-26 10:24 UTC. Time now 2016-May-28 02:01 UTC.
Position N 34°57' E 139°29'.

Length 145 m; draft 7.6 m.

Type: Cargo ship. MMSI: 355090000.

Date/timePositionNaut miles runAvg speedWind from/ knotsBaromVisibWave heightAir tempDewpointWater temp
2016-May-26 10:24N 34°57' E 139°29'1213.6
2016-May-26 09:32N 35°05' E 139°39'1212.5
2016-May-26 08:33N 35°16' E 139°45'9 8.6
2016-May-26 07:32N 35°24' E 139°41'0 0.0
2016-May-26 06:32N 35°24' E 139°41'0 0.0
2016-May-26 05:32N 35°24' E 139°41'1 0.7
2016-May-26 04:34N 35°24' E 139°41'1010.3
2016-May-26 03:34N 35°30' E 139°51'8 7.8
2016-May-26 02:32N 35°37' E 139°46'0 0.0
2016-May-26 01:29N 35°37' E 139°46'0 0.0
2016-May-26 00:32N 35°37' E 139°46'0 0.0
2016-May-25 23:29N 35°37' E 139°46'0 0.0
2016-May-25 22:32N 35°37' E 139°46'1 0.7
2016-May-25 21:34N 35°36' E 139°46'9 8.9
2016-May-25 20:34N 35°28' E 139°50'1010.2
2016-May-25 19:34N 35°19' E 139°44'1211.5
2016-May-25 18:33N 35°08' E 139°46'  
2016-May-22 02:33N 31°17' E 121°50'9 6.7
2016-May-22 01:10N 31°20' E 121°39'0 0.0
2016-May-22 00:16N 31°20' E 121°39'0 0.0
2016-May-21 21:04N 31°20' E 121°39'0 0.0
2016-May-21 16:16N 31°20' E 121°39'1 1.1
2016-May-21 15:33N 31°21' E 121°39'1611.1
2016-May-21 14:06N 31°09' E 121°53'65 9.8
2016-May-21 07:24N 30°16' E 122°36'1213.0
2016-May-21 06:30N 30°04' E 122°37'1313.1
2016-May-21 05:29N 29°51' E 122°34'1614.1
2016-May-21 04:22N 29°36' E 122°29'1414.2
2016-May-21 03:23N 29°22' E 122°27'41714.9
2016-May-19 23:22N 22°48' E 119°56'  
Track history (hours):
 
Tides and Currents Weather Stations Pressure Air Temp Water Temp Dewpoint Dewpoint Depression Visibility Wind Speed Wind Dir Waves Ship Positions

Sitc Xiamen

Last reported at 2016-May-26 10:24 UTC. Time now 2016-May-28 02:01 UTC.
Position N 34°57' E 139°29'.

Length 145 m; draft 7.6 m.

Type: Cargo ship. MMSI: 355090000.

Date/timePositionNaut miles runAvg speedWind from/ knotsBaromVisibWave heightAir tempDewpointWater temp
2016-May-26 10:24N 34°57' E 139°29'1213.6
2016-May-26 09:32N 35°05' E 139°39'1212.5
2016-May-26 08:33N 35°16' E 139°45'9 8.6
2016-May-26 07:32N 35°24' E 139°41'0 0.0
2016-May-26 06:32N 35°24' E 139°41'0 0.0
2016-May-26 05:32N 35°24' E 139°41'1 0.7
2016-May-26 04:34N 35°24' E 139°41'1010.3
2016-May-26 03:34N 35°30' E 139°51'8 7.8
2016-May-26 02:32N 35°37' E 139°46'0 0.0
2016-May-26 01:29N 35°37' E 139°46'0 0.0
2016-May-26 00:32N 35°37' E 139°46'0 0.0
2016-May-25 23:29N 35°37' E 139°46'0 0.0
2016-May-25 22:32N 35°37' E 139°46'1 0.7
2016-May-25 21:34N 35°36' E 139°46'9 8.9
2016-May-25 20:34N 35°28' E 139°50'1010.2
2016-May-25 19:34N 35°19' E 139°44'1211.5
2016-May-25 18:33N 35°08' E 139°46'  
2016-May-22 02:33N 31°17' E 121°50'9 6.7
2016-May-22 01:10N 31°20' E 121°39'0 0.0
2016-May-22 00:16N 31°20' E 121°39'0 0.0
2016-May-21 21:04N 31°20' E 121°39'0 0.0
2016-May-21 16:16N 31°20' E 121°39'1 1.1
2016-May-21 15:33N 31°21' E 121°39'1611.1
2016-May-21 14:06N 31°09' E 121°53'65 9.8
2016-May-21 07:24N 30°16' E 122°36'1213.0
2016-May-21 06:30N 30°04' E 122°37'1313.1
2016-May-21 05:29N 29°51' E 122°34'1614.1
2016-May-21 04:22N 29°36' E 122°29'1414.2
2016-May-21 03:23N 29°22' E 122°27'41714.9
2016-May-19 23:22N 22°48' E 119°56'  

Dump ship's entire track history